CheckWX is a tool to help pilots better visualize weather data.  It is not intended as a substitute for an official pre-flight weather briefing.

04:35:29 UTC

EGPN METAR
Dundee Airport
Dundee, United Kingdom
Current

8 hours ago

EGPN 262020Z 10007KT CAVOK 13/11 Q1032
Observed
Jun-26 @ 20:20 UTC
Wind
  • 100° at 7 KTS
Visibility
10,000+ meters
Flight Rules
VFR
Cloud Levels
  • Clear skies
Temperature
13°C / 55°F
Dewpoint
11°C / 52°F
Humidity
88%
Altimeter
30.47" Hg
Pressure
1031.92 hPa
Previous

9 hours ago

EGPN 261950Z 09008KT CAVOK 13/10 Q1031
Observed
Jun-26 @ 19:50 UTC
Wind
  • 090° at 8 KTS
Visibility
10,000+ meters
Flight Rules
VFR
Cloud Levels
  • Clear skies
Temperature
13°C / 55°F
Dewpoint
10°C / 50°F
Humidity
82%
Altimeter
30.44" Hg
Pressure
1030.92 hPa
Previous

9 hours ago

EGPN 261920Z 09007KT CAVOK 14/11 Q1031
Observed
Jun-26 @ 19:20 UTC
Wind
  • 090° at 7 KTS
Visibility
10,000+ meters
Flight Rules
VFR
Cloud Levels
  • Clear skies
Temperature
14°C / 57°F
Dewpoint
11°C / 52°F
Humidity
82%
Altimeter
30.44" Hg
Pressure
1030.92 hPa